Time;durP1;ratioP1;P1;durP2;ratioP2;P2;SDS_P1;SDS_P2;PMS_P1;PMS_P2;Temp;Humidity;BMP_temperature;BMP_pressure;BME280_temperature;BME280_humidity;BME280_pressure;Samples;Min_cycle;Max_cycle;Signal;HPM_P1;HPM_P2
2022/12/10 00:01:50;;;;;;;108.17;33.17;;;;;;;-145.68;100.00;63218.00;10451640;28;20680;-77
2022/12/10 00:06:50;;;;;;;121.77;34.83;;;;;;;-145.68;100.00;63218.00;10433614;28;20307;-79
2022/12/10 00:11:50;;;;;;;126.20;37.10;;;;;;;-145.68;100.00;63218.00;10451871;28;20231;-79
2022/12/10 00:16:51;;;;;;;132.57;35.07;;;;;;;-145.68;100.00;63218.00;10451140;28;20200;-79
2022/12/10 00:21:51;;;;;;;131.07;35.87;;;;;;;-145.68;100.00;63218.00;10451058;28;20195;-79
2022/12/10 00:26:52;;;;;;;133.20;36.90;;;;;;;-145.68;100.00;63218.00;10432900;28;20254;-79
2022/12/10 00:31:52;;;;;;;135.03;35.93;;;;;;;-145.68;100.00;63218.00;10435179;28;20202;-79
2022/12/10 00:36:54;;;;;;;125.93;35.67;;;;;;;-145.68;100.00;63218.00;10432124;28;20207;-79
2022/12/10 00:41:54;;;;;;;135.53;36.23;;;;;;;-145.68;100.00;63218.00;10449852;28;20187;-79
2022/12/10 00:46:54;;;;;;;165.17;38.60;;;;;;;-145.68;100.00;63218.00;10450101;28;20314;-76
2022/12/10 00:51:55;;;;;;;199.13;40.90;;;;;;;-145.68;100.00;63218.00;10431446;28;20202;-78
2022/12/10 00:56:55;;;;;;;152.80;37.60;;;;;;;-145.68;100.00;63218.00;10450165;28;20236;-78
2022/12/10 01:01:56;;;;;;;225.00;40.07;;;;;;;-145.68;100.00;63218.00;10448987;28;20191;-79
2022/12/10 01:06:56;;;;;;;135.63;35.93;;;;;;;-145.68;100.00;63218.00;10449515;28;20215;-79
2022/12/10 01:12:01;;;;;;;118.47;36.17;;;;;;;-145.68;100.00;63218.00;10449498;28;20656;-79
2022/12/10 01:17:04;;;;;;;256.37;38.70;;;;;;;-145.68;100.00;63218.00;10435328;28;20195;-79
2022/12/10 01:22:04;;;;;;;130.40;35.63;;;;;;;-145.68;100.00;63218.00;10457443;28;20650;-79
2022/12/10 01:27:04;;;;;;;120.77;33.77;;;;;;;-145.68;100.00;63218.00;10456659;28;20377;-79
2022/12/10 01:32:05;;;;;;;204.77;38.20;;;;;;;-145.68;100.00;63218.00;10456958;28;20184;-78
2022/12/10 01:37:05;;;;;;;142.60;33.80;;;;;;;-145.68;100.00;63218.00;10456389;28;20207;-78
2022/12/10 01:42:06;;;;;;;126.07;34.13;;;;;;;-145.68;100.00;63218.00;10455995;28;20661;-78
2022/12/10 01:47:06;;;;;;;177.30;34.43;;;;;;;-145.68;100.00;63218.00;10438269;28;20215;-78
2022/12/10 01:52:09;;;;;;;231.83;38.83;;;;;;;-145.68;100.00;63218.00;10438026;28;20289;-78
2022/12/10 01:57:28;;;;;;;142.83;34.73;;;;;;;-145.68;100.00;63218.00;10438326;28;20192;-78
2022/12/10 02:02:45;;;;;;;205.97;36.93;;;;;;;-145.68;100.00;63218.00;10435970;28;20188;-79
2022/12/10 02:07:46;;;;;;;220.30;39.33;;;;;;;-145.68;100.00;63218.00;10421067;28;20780;-78
2022/12/10 02:12:49;;;;;;;185.35;38.33;;;;;;;-145.68;100.00;63218.00;10438036;28;20192;-78
2022/12/10 02:17:53;;;;;;;238.63;38.60;;;;;;;-145.68;100.00;63218.00;10420284;28;20553;-78
2022/12/10 02:23:01;;;;;;;205.73;37.73;;;;;;;-145.68;100.00;63218.00;10437243;28;20177;-79
2022/12/10 02:28:27;;;;;;;227.60;38.20;;;;;;;-145.68;100.00;63218.00;10418801;28;20353;-78
2022/12/10 02:33:29;;;;;;;180.93;36.80;;;;;;;-145.68;100.00;63218.00;10454458;28;20183;-78
2022/12/10 02:38:31;;;;;;;170.60;36.33;;;;;;;-145.68;100.00;63218.00;10435952;28;20632;-78
2022/12/10 02:43:34;;;;;;;222.37;41.23;;;;;;;-145.68;100.00;63218.00;10420081;28;20275;-78
2022/12/10 02:48:35;;;;;;;272.33;39.20;;;;;;;-145.68;100.00;63218.00;10419078;28;20632;-78
2022/12/10 02:53:43;;;;;;;176.43;36.43;;;;;;;-145.68;100.00;63218.00;10453912;28;20578;-78
2022/12/10 02:58:55;;;;;;;288.30;39.73;;;;;;;-145.68;100.00;63218.00;10435256;28;20187;-78
2022/12/10 03:04:00;;;;;;;170.40;36.07;;;;;;;-145.68;100.00;63218.00;10418572;28;20217;-78
2022/12/10 03:09:08;;;;;;;249.30;38.67;;;;;;;-145.68;100.00;63218.00;10418624;28;20243;-78
2022/12/10 03:14:15;;;;;;;193.17;40.17;;;;;;;-145.68;100.00;63218.00;10435444;28;20202;-79
2022/12/10 03:19:21;;;;;;;172.23;36.17;;;;;;;-145.68;100.00;63218.00;10434747;28;20188;-79
2022/12/10 03:24:22;;;;;;;301.43;41.80;;;;;;;-145.68;100.00;63218.00;10434134;28;20286;-78
2022/12/10 03:29:26;;;;;;;168.80;34.97;;;;;;;-145.68;100.00;63218.00;10432761;28;20281;-78
2022/12/10 03:34:27;;;;;;;247.90;43.00;;;;;;;-145.68;100.00;63218.00;10433782;28;20238;-78
2022/12/10 03:39:27;;;;;;;222.80;37.37;;;;;;;-145.68;100.00;63218.00;10433378;28;20236;-78
2022/12/10 03:44:32;;;;;;;275.73;40.40;;;;;;;-145.68;100.00;63218.00;10433417;28;20261;-78
2022/12/10 03:49:33;;;;;;;388.60;40.47;;;;;;;-145.68;100.00;63218.00;10451088;28;20235;-78
2022/12/10 03:54:34;;;;;;;270.17;38.90;;;;;;;-145.68;100.00;63218.00;10451327;28;20545;-78
2022/12/10 03:59:34;;;;;;;217.23;37.57;;;;;;;-145.68;100.00;63218.00;10442226;28;20188;-78
2022/12/10 04:04:34;;;;;;;190.77;36.10;;;;;;;-145.68;100.00;63218.00;10448365;28;20195;-78
2022/12/10 04:09:35;;;;;;;182.40;33.93;;;;;;;-145.68;100.00;63218.00;10446851;28;20241;-78
2022/12/10 04:19:54;;;;;;;204.03;33.80;;;;;;;-145.68;100.00;63218.00;10446992;28;20627;-78
2022/12/10 04:30:27;;;;;;;129.67;30.30;;;;;;;-145.68;100.00;63218.00;10412845;28;20237;-78
2022/12/10 04:35:27;;;;;;;155.77;32.73;;;;;;;-145.68;100.00;63218.00;10446835;28;20237;-78
2022/12/10 04:40:28;;;;;;;165.63;31.73;;;;;;;-145.68;100.00;63218.00;10446244;28;20952;-78
2022/12/10 04:45:28;;;;;;;125.03;28.40;;;;;;;-145.68;100.00;63218.00;10446453;28;20206;-78
2022/12/10 04:50:29;;;;;;;147.60;32.13;;;;;;;-145.68;100.00;63218.00;10447964;28;20275;-78
2022/12/10 04:55:29;;;;;;;144.60;29.37;;;;;;;-145.68;100.00;63218.00;10455088;28;20194;-78
2022/12/10 05:00:29;;;;;;;124.30;28.00;;;;;;;-145.68;100.00;63218.00;10453889;28;20183;-78
2022/12/10 05:05:30;;;;;;;100.57;27.67;;;;;;;-145.68;100.00;63218.00;10458166;28;20194;-78
2022/12/10 05:10:30;;;;;;;115.80;28.30;;;;;;;-145.68;100.00;63218.00;10456982;28;20274;-78
2022/12/10 05:15:30;;;;;;;125.77;29.13;;;;;;;-145.68;100.00;63218.00;10456914;28;20219;-78
2022/12/10 05:20:31;;;;;;;113.37;29.40;;;;;;;-145.68;100.00;63218.00;10456900;28;20187;-78
2022/12/10 05:25:52;;;;;;;173.30;31.73;;;;;;;-145.68;100.00;63218.00;10456247;28;20232;-78
2022/12/10 05:30:52;;;;;;;112.27;29.83;;;;;;;-145.68;100.00;63218.00;10457065;28;20312;-78
2022/12/10 05:35:53;;;;;;;106.90;29.00;;;;;;;-145.68;100.00;63218.00;10456597;28;20192;-78
2022/12/10 05:40:54;;;;;;;127.73;29.70;;;;;;;-145.68;100.00;63218.00;10456266;28;20314;-78
2022/12/10 05:45:59;;;;;;;133.50;29.80;;;;;;;-145.68;100.00;63218.00;10456308;28;20334;-78
2022/12/10 05:51:04;;;;;;;123.23;29.47;;;;;;;-145.68;100.00;63218.00;10456617;28;20249;-78
2022/12/10 05:56:07;;;;;;;116.10;29.77;;;;;;;-145.68;100.00;63218.00;10456732;28;20200;-78
2022/12/10 06:01:14;;;;;;;165.90;31.03;;;;;;;-145.68;100.00;63218.00;10456419;28;20230;-78
2022/12/10 06:06:20;;;;;;;114.37;29.23;;;;;;;-145.68;100.00;63218.00;10456300;28;20269;-78
2022/12/10 06:11:21;;;;;;;99.63;28.00;;;;;;;-145.68;100.00;63218.00;10456193;28;20192;-78
2022/12/10 06:16:22;;;;;;;93.83;27.40;;;;;;;-145.68;100.00;63218.00;10438352;28;20176;-78
2022/12/10 06:21:22;;;;;;;92.07;26.50;;;;;;;-145.68;100.00;63218.00;10455943;28;20195;-78
2022/12/10 06:26:25;;;;;;;103.17;28.40;;;;;;;-145.68;100.00;63218.00;10455194;28;20231;-79
2022/12/10 06:31:25;;;;;;;87.00;26.53;;;;;;;-145.68;100.00;63218.00;10455238;28;20234;-78
2022/12/10 06:36:25;;;;;;;91.07;27.83;;;;;;;-145.68;100.00;63218.00;10447616;28;20237;-79
2022/12/10 06:41:26;;;;;;;77.50;24.43;;;;;;;-145.68;100.00;63218.00;10431144;28;20538;-78
2022/12/10 06:46:29;;;;;;;87.53;25.70;;;;;;;-145.68;100.00;63218.00;10433619;28;20216;-78
2022/12/10 06:51:30;;;;;;;75.43;23.93;;;;;;;-145.68;100.00;63218.00;10432823;28;20553;-78
2022/12/10 06:56:30;;;;;;;73.07;22.43;;;;;;;-145.68;100.00;63218.00;10430264;28;20184;-78
2022/12/10 07:01:31;;;;;;;60.90;21.80;;;;;;;-145.68;100.00;63218.00;10439692;28;20606;-78
2022/12/10 07:06:32;;;;;;;55.63;20.83;;;;;;;-145.68;100.00;63218.00;10454259;28;20275;-78
2022/12/10 07:11:32;;;;;;;69.83;25.07;;;;;;;-145.68;100.00;63218.00;10453787;28;20695;-78
2022/12/10 07:16:33;;;;;;;72.47;24.90;;;;;;;-145.68;100.00;63218.00;10452889;28;20184;-78
2022/12/10 07:21:35;;;;;;;71.63;23.63;;;;;;;-145.68;100.00;63218.00;10435732;28;20188;-78
2022/12/10 07:26:37;;;;;;;69.37;24.70;;;;;;;-145.68;100.00;63218.00;10452916;28;20236;-78
2022/12/10 07:31:38;;;;;;;67.40;24.67;;;;;;;-145.68;100.00;63218.00;10453317;28;20196;-77
2022/12/10 07:36:38;;;;;;;65.53;24.23;;;;;;;-145.68;100.00;63218.00;10453074;28;20211;-78
2022/12/10 07:41:38;;;;;;;71.67;23.43;;;;;;;-145.68;100.00;63218.00;10452503;28;20197;-78
2022/12/10 07:46:39;;;;;;;65.47;23.93;;;;;;;-145.68;100.00;63218.00;10452638;28;20842;-78
2022/12/10 07:51:44;;;;;;;62.03;24.43;;;;;;;-145.68;100.00;63218.00;10451991;28;20200;-77
2022/12/10 07:56:44;;;;;;;67.90;23.50;;;;;;;-145.68;100.00;63218.00;10428195;28;20187;-78
2022/12/10 08:01:44;;;;;;;57.30;23.73;;;;;;;-145.68;100.00;63218.00;10449471;28;20188;-78
2022/12/10 08:06:45;;;;;;;56.33;21.87;;;;;;;-145.68;100.00;63218.00;10449593;28;20694;-78
2022/12/10 08:11:45;;;;;;;54.20;21.93;;;;;;;-145.68;100.00;63218.00;10449703;28;20196;-78
2022/12/10 08:16:46;;;;;;;58.10;23.30;;;;;;;-145.68;100.00;63218.00;10449594;28;20184;-78
2022/12/10 08:21:46;;;;;;;54.57;21.93;;;;;;;-145.68;100.00;63218.00;10448476;28;20194;-78
2022/12/10 08:32:51;;;;;;;48.23;20.13;;;;;;;-145.68;100.00;63218.00;10443810;28;20284;-78
2022/12/10 08:37:51;;;;;;;45.27;19.40;;;;;;;-145.68;100.00;63218.00;10447036;28;20211;-78
2022/12/10 08:42:52;;;;;;;49.77;21.40;;;;;;;-145.68;100.00;63218.00;10447684;28;20242;-78
2022/12/10 08:47:52;;;;;;;47.30;20.83;;;;;;;-145.68;100.00;63218.00;10430981;28;20246;-78
2022/12/10 08:52:53;;;;;;;44.83;19.70;;;;;;;-145.68;100.00;63218.00;10431288;28;20644;-78
2022/12/10 08:57:53;;;;;;;38.03;17.30;;;;;;;-145.68;100.00;63218.00;10448309;28;20595;-78
2022/12/10 09:02:53;;;;;;;42.93;19.17;;;;;;;-145.68;100.00;63218.00;10430251;28;20210;-77
2022/12/10 09:07:54;;;;;;;44.77;19.97;;;;;;;-145.68;100.00;63218.00;10424212;28;20270;-77
2022/12/10 09:12:54;;;;;;;50.30;21.83;;;;;;;-145.68;100.00;63218.00;10429604;28;20194;-77
2022/12/10 09:17:54;;;;;;;42.53;18.77;;;;;;;-145.68;100.00;63218.00;10423494;28;20184;-78
2022/12/10 09:22:55;;;;;;;41.47;18.43;;;;;;;-145.68;100.00;63218.00;10403407;28;20730;-77
2022/12/10 09:27:55;;;;;;;41.30;18.50;;;;;;;-145.68;100.00;63218.00;10412812;28;20227;-76
2022/12/10 09:32:56;;;;;;;43.87;18.80;;;;;;;-145.68;100.00;63218.00;10435646;28;20199;-77
2022/12/10 09:37:56;;;;;;;46.17;22.17;;;;;;;-145.68;100.00;63218.00;10450664;28;20703;-77
2022/12/10 09:43:12;;;;;;;43.10;19.53;;;;;;;-145.68;100.00;63218.00;10456201;28;20574;-78
2022/12/10 09:48:25;;;;;;;46.20;20.97;;;;;;;-145.68;100.00;63218.00;10438259;28;20235;-77
2022/12/10 09:53:27;;;;;;;45.37;18.97;;;;;;;-145.68;100.00;63218.00;10456107;28;20214;-78
2022/12/10 09:58:27;;;;;;;40.87;19.97;;;;;;;-145.68;100.00;63218.00;10439493;28;20648;-78
2022/12/10 10:03:31;;;;;;;42.07;19.43;;;;;;;-145.68;100.00;63218.00;10411716;28;20278;-77
2022/12/10 10:08:42;;;;;;;40.93;19.77;;;;;;;-145.68;100.00;63218.00;10425458;28;20703;-78
2022/12/10 10:13:50;;;;;;;43.97;19.30;;;;;;;-145.68;100.00;63218.00;10439237;28;20196;-78
2022/12/10 10:18:57;;;;;;;40.90;20.03;;;;;;;-145.68;100.00;63218.00;10439592;28;20215;-78
2022/12/10 10:23:58;;;;;;;37.70;18.40;;;;;;;-145.68;100.00;63218.00;10460679;28;20232;-77
2022/12/10 10:29:01;;;;;;;41.33;19.67;;;;;;;-145.68;100.00;63218.00;10450254;28;20223;-77
2022/12/10 10:34:05;;;;;;;40.40;18.67;;;;;;;-145.68;100.00;63218.00;10461831;28;20188;-75
2022/12/10 10:39:20;;;;;;;35.43;18.03;;;;;;;-145.68;100.00;63218.00;10455763;28;20263;-77
2022/12/10 10:44:38;;;;;;;38.90;18.23;;;;;;;-145.68;100.00;63218.00;10440075;28;20624;-84
2022/12/10 10:49:43;;;;;;;41.40;19.73;;;;;;;-145.68;100.00;63218.00;10406229;28;20680;-78
2022/12/10 10:54:44;;;;;;;42.60;19.83;;;;;;;-145.68;100.00;63218.00;10395773;28;20194;-78
2022/12/10 10:59:45;;;;;;;38.97;19.10;;;;;;;-145.68;100.00;63218.00;10399149;28;20185;-78
2022/12/10 11:04:48;;;;;;;43.77;21.03;;;;;;;-145.68;100.00;63218.00;10392052;28;20257;-77
2022/12/10 11:09:49;;;;;;;32.93;16.27;;;;;;;-145.68;100.00;63218.00;10410658;28;20218;-76
2022/12/10 11:14:50;;;;;;;35.47;17.50;;;;;;;-145.68;100.00;63218.00;10452685;28;20192;-77
2022/12/10 11:20:00;;;;;;;29.37;15.50;;;;;;;-145.68;100.00;63218.00;10418425;28;20571;-78
2022/12/10 11:25:01;;;;;;;26.47;13.43;;;;;;;-145.68;100.00;63218.00;10411165;28;20242;-76
2022/12/10 11:30:05;;;;;;;29.70;16.03;;;;;;;-145.68;100.00;63218.00;10449367;28;20222;-76
2022/12/10 11:35:11;;;;;;;31.20;17.03;;;;;;;-145.68;100.00;63218.00;10420365;28;20188;-76
2022/12/10 11:40:50;;;;;;;26.33;14.83;;;;;;;-145.68;100.00;63218.00;10404934;28;20236;-76
2022/12/10 11:46:13;;;;;;;34.63;15.47;;;;;;;-145.68;100.00;63218.00;10402546;28;21046;-77
2022/12/10 11:51:27;;;;;;;35.97;16.77;;;;;;;-145.68;100.00;63218.00;10409280;28;20199;-76
2022/12/10 11:56:34;;;;;;;35.73;17.57;;;;;;;-145.68;100.00;63218.00;10391368;28;20192;-75
2022/12/10 12:01:42;;;;;;;34.37;17.47;;;;;;;-145.68;100.00;63218.00;10422648;28;20203;-76
2022/12/10 12:06:58;;;;;;;39.50;20.10;;;;;;;-145.68;100.00;63218.00;10433505;28;20234;-77
2022/12/10 12:12:01;;;;;;;36.03;17.57;;;;;;;-145.68;100.00;63218.00;10451390;28;20195;-77
2022/12/10 12:17:09;;;;;;;34.27;17.33;;;;;;;-145.68;100.00;63218.00;10451139;28;20200;-77
2022/12/10 12:22:16;;;;;;;40.87;19.67;;;;;;;-145.68;100.00;63218.00;10433333;28;20191;-78
2022/12/10 12:27:25;;;;;;;28.30;16.17;;;;;;;-145.68;100.00;63218.00;10450502;28;20235;-76
2022/12/10 12:32:40;;;;;;;29.40;16.03;;;;;;;-145.68;100.00;63218.00;10450770;28;20687;-77
2022/12/10 12:37:46;;;;;;;29.43;16.10;;;;;;;-145.68;100.00;63218.00;10450695;28;20199;-78
2022/12/10 12:42:52;;;;;;;29.50;15.57;;;;;;;-145.68;100.00;63218.00;10432451;28;20199;-78
2022/12/10 12:48:14;;;;;;;32.37;16.27;;;;;;;-145.68;100.00;63218.00;10438862;28;20712;-77
2022/12/10 12:53:17;;;;;;;39.07;18.60;;;;;;;-145.68;100.00;63218.00;10432737;28;20241;-78
2022/12/10 12:58:39;;;;;;;82.37;36.73;;;;;;;-145.68;100.00;63218.00;10450087;28;20195;-76
2022/12/10 13:03:40;;;;;;;34.93;18.63;;;;;;;-145.68;100.00;63218.00;10450539;28;20249;-77
2022/12/10 13:08:47;;;;;;;57.00;26.93;;;;;;;-145.68;100.00;63218.00;10432071;28;21017;-77
2022/12/10 13:14:06;;;;;;;44.17;22.13;;;;;;;-145.68;100.00;63218.00;10437105;28;20245;-78
2022/12/10 13:19:18;;;;;;;115.20;53.20;;;;;;;-145.68;100.00;63218.00;10434376;28;20276;-77
2022/12/10 13:24:21;;;;;;;28.37;15.03;;;;;;;-145.68;100.00;63218.00;10421104;28;20254;-78
2022/12/10 13:29:25;;;;;;;26.47;15.40;;;;;;;-145.68;100.00;63218.00;10411359;28;20281;-77
2022/12/10 13:34:34;;;;;;;28.93;16.77;;;;;;;-145.68;100.00;63218.00;10436120;28;20237;-77
2022/12/10 13:39:45;;;;;;;28.03;15.60;;;;;;;-145.68;100.00;63218.00;10439090;28;20208;-79
2022/12/10 13:44:48;;;;;;;33.20;17.40;;;;;;;-145.68;100.00;63218.00;10433955;28;20185;-78
2022/12/10 13:50:14;;;;;;;32.27;18.00;;;;;;;-145.68;100.00;63218.00;10410407;28;20299;-76
2022/12/10 13:55:26;;;;;;;29.30;17.60;;;;;;;-145.68;100.00;63218.00;10416628;28;20234;-77
2022/12/10 14:00:49;;;;;;;33.20;17.27;;;;;;;-145.68;100.00;63218.00;10426030;28;20233;-76
2022/12/10 14:06:03;;;;;;;36.57;18.60;;;;;;;-145.68;100.00;63218.00;10443250;28;20743;-77
2022/12/10 14:11:17;;;;;;;31.90;16.83;;;;;;;-145.68;100.00;63218.00;10456963;28;20200;-79
2022/12/10 14:16:21;;;;;;;31.70;16.37;;;;;;;-145.68;100.00;63218.00;10439331;28;20199;-77
2022/12/10 14:21:24;;;;;;;30.40;16.13;;;;;;;-145.68;100.00;63218.00;10439199;28;20199;-77
2022/12/10 14:26:31;;;;;;;32.87;17.53;;;;;;;-145.68;100.00;63218.00;10439053;28;20224;-77
2022/12/10 14:31:35;;;;;;;30.87;16.67;;;;;;;-145.68;100.00;63218.00;10456647;28;20679;-78
2022/12/10 14:36:43;;;;;;;31.97;16.37;;;;;;;-145.68;100.00;63218.00;10438698;28;20212;-78
2022/12/10 14:41:45;;;;;;;31.17;17.03;;;;;;;-145.68;100.00;63218.00;10438217;28;20204;-77
2022/12/10 14:46:49;;;;;;;33.43;17.70;;;;;;;-145.68;100.00;63218.00;10437413;28;20220;-78
2022/12/10 14:51:49;;;;;;;34.27;17.50;;;;;;;-145.68;100.00;63218.00;10424463;28;20270;-76
2022/12/10 14:56:51;;;;;;;28.70;16.33;;;;;;;-145.68;100.00;63218.00;10423057;28;20188;-78
2022/12/10 15:01:55;;;;;;;32.70;18.00;;;;;;;-145.68;100.00;63218.00;10413408;28;20710;-78
2022/12/10 15:07:01;;;;;;;34.70;18.57;;;;;;;-145.68;100.00;63218.00;10409246;28;20336;-77
2022/12/10 15:12:02;;;;;;;34.00;18.23;;;;;;;-145.68;100.00;63218.00;10415323;28;20250;-78
2022/12/10 15:17:03;;;;;;;32.87;18.33;;;;;;;-145.68;100.00;63218.00;10417066;28;20189;-77
2022/12/10 15:22:20;;;;;;;30.07;16.33;;;;;;;-145.68;100.00;63218.00;10417514;28;20271;-78
2022/12/10 15:27:25;;;;;;;31.97;17.27;;;;;;;-145.68;100.00;63218.00;10420749;28;20244;-78
2022/12/10 15:32:27;;;;;;;33.17;16.70;;;;;;;-145.68;100.00;63218.00;10433383;28;20192;-77
2022/12/10 15:37:33;;;;;;;33.70;17.20;;;;;;;-145.68;100.00;63218.00;10391769;28;20228;-78
2022/12/10 15:42:42;;;;;;;34.47;18.70;;;;;;;-145.68;100.00;63218.00;10386219;28;20195;-79
2022/12/10 15:47:43;;;;;;;56.73;31.47;;;;;;;-145.68;100.00;63218.00;10379052;28;20240;-78
2022/12/10 15:52:44;;;;;;;50.40;28.03;;;;;;;-145.68;100.00;63218.00;10388061;28;20245;-78
2022/12/10 15:57:48;;;;;;;72.40;36.70;;;;;;;-145.68;100.00;63218.00;10375860;28;20203;-78
2022/12/10 16:02:50;;;;;;;43.10;20.67;;;;;;;-145.68;100.00;63218.00;10410096;28;20193;-79
2022/12/10 16:07:53;;;;;;;118.70;50.20;;;;;;;-145.68;100.00;63218.00;10391214;28;20220;-78
2022/12/10 16:13:02;;;;;;;47.53;26.30;;;;;;;-145.68;100.00;63218.00;10392326;28;20713;-78
2022/12/10 16:18:03;;;;;;;37.27;20.47;;;;;;;-145.68;100.00;63218.00;10409142;28;20246;-78
2022/12/10 16:23:05;;;;;;;49.60;23.30;;;;;;;-145.68;100.00;63218.00;10407847;28;20196;-78
2022/12/10 16:28:06;;;;;;;78.30;40.10;;;;;;;-145.68;100.00;63218.00;10427030;28;20260;-78
2022/12/10 16:33:06;;;;;;;49.53;23.03;;;;;;;-145.68;100.00;63218.00;10447924;28;20184;-78
2022/12/10 16:38:06;;;;;;;55.80;21.87;;;;;;;-145.68;100.00;63218.00;10431344;28;20686;-78
2022/12/10 16:43:27;;;;;;;48.63;21.10;;;;;;;-145.68;100.00;63218.00;10449012;28;20214;-78
2022/12/10 16:48:28;;;;;;;68.03;31.03;;;;;;;-145.68;100.00;63218.00;10447900;28;20267;-78
2022/12/10 16:53:31;;;;;;;58.07;23.27;;;;;;;-145.68;100.00;63218.00;10414832;28;20196;-78
2022/12/10 16:58:31;;;;;;;44.90;20.33;;;;;;;-145.68;100.00;63218.00;10448838;28;20184;-78
2022/12/10 17:03:31;;;;;;;46.23;21.57;;;;;;;-145.68;100.00;63218.00;10430585;28;20211;-78
2022/12/10 17:08:32;;;;;;;54.47;22.17;;;;;;;-145.68;100.00;63218.00;10448515;28;20216;-79
2022/12/10 17:13:33;;;;;;;51.47;21.00;;;;;;;-145.68;100.00;63218.00;10448546;28;20191;-79
2022/12/10 17:18:34;;;;;;;49.00;21.30;;;;;;;-145.68;100.00;63218.00;10448098;28;20199;-79
2022/12/10 17:23:34;;;;;;;43.43;20.10;;;;;;;-145.68;100.00;63218.00;10430652;28;20188;-77
2022/12/10 17:28:35;;;;;;;44.93;20.73;;;;;;;-145.68;100.00;63218.00;10409295;28;20243;-79
2022/12/10 17:33:35;;;;;;;39.00;18.03;;;;;;;-145.68;100.00;63218.00;10406921;28;20188;-78
2022/12/10 17:38:35;;;;;;;35.83;16.37;;;;;;;-145.68;100.00;63218.00;10406487;28;20550;-78
2022/12/10 17:43:36;;;;;;;35.30;16.43;;;;;;;-145.68;100.00;63218.00;10406870;28;20188;-78
2022/12/10 17:48:36;;;;;;;35.80;16.13;;;;;;;-145.68;100.00;63218.00;10406317;28;20700;-78
2022/12/10 17:53:36;;;;;;;32.67;15.93;;;;;;;-145.68;100.00;63218.00;10406969;28;20188;-79
2022/12/10 17:58:39;;;;;;;31.40;16.20;;;;;;;-145.68;100.00;63218.00;10409387;28;20653;-79
2022/12/10 18:03:39;;;;;;;29.60;15.53;;;;;;;-145.68;100.00;63218.00;10413418;28;20200;-78
2022/12/10 18:08:40;;;;;;;31.20;15.43;;;;;;;-145.68;100.00;63218.00;10413592;28;20787;-79
2022/12/10 18:13:40;;;;;;;36.70;17.20;;;;;;;-145.68;100.00;63218.00;10388554;28;20533;-79
2022/12/10 18:18:40;;;;;;;34.47;16.43;;;;;;;-145.68;100.00;63218.00;10395092;28;20184;-79
2022/12/10 18:23:41;;;;;;;31.37;16.80;;;;;;;-145.68;100.00;63218.00;10413336;28;20272;-78
2022/12/10 18:28:43;;;;;;;35.50;17.87;;;;;;;-145.68;100.00;63218.00;10412520;28;20235;-79
2022/12/10 18:33:48;;;;;;;30.10;16.57;;;;;;;-145.68;100.00;63218.00;10412597;28;20777;-78
2022/12/10 18:38:48;;;;;;;31.80;16.27;;;;;;;-145.68;100.00;63218.00;10411776;28;20220;-79
2022/12/10 18:43:49;;;;;;;36.60;18.33;;;;;;;-145.68;100.00;63218.00;10412086;28;20188;-78
2022/12/10 18:48:50;;;;;;;37.80;18.93;;;;;;;-145.68;100.00;63218.00;10394239;28;20231;-79
2022/12/10 18:53:50;;;;;;;39.70;19.30;;;;;;;-145.68;100.00;63218.00;10411738;28;20532;-78
2022/12/10 18:58:51;;;;;;;39.80;19.43;;;;;;;-145.68;100.00;63218.00;10377010;28;20208;-78
2022/12/10 19:03:53;;;;;;;43.80;19.97;;;;;;;-145.68;100.00;63218.00;10393843;28;20189;-78
2022/12/10 19:08:55;;;;;;;49.93;22.90;;;;;;;-145.68;100.00;63218.00;10410476;28;20689;-78
2022/12/10 19:13:56;;;;;;;43.37;21.13;;;;;;;-145.68;100.00;63218.00;10410736;28;20479;-78
2022/12/10 19:19:00;;;;;;;40.90;20.90;;;;;;;-145.68;100.00;63218.00;10377060;28;20196;-79
2022/12/10 19:24:01;;;;;;;43.00;21.07;;;;;;;-145.68;100.00;63218.00;10410563;28;20985;-78
2022/12/10 19:29:08;;;;;;;42.50;20.70;;;;;;;-145.68;100.00;63218.00;10409697;28;20228;-78
2022/12/10 19:34:09;;;;;;;37.63;21.10;;;;;;;-145.68;100.00;63218.00;10392743;28;20188;-78
2022/12/10 19:39:17;;;;;;;37.27;20.00;;;;;;;-145.68;100.00;63218.00;10409637;28;20200;-78
2022/12/10 19:44:18;;;;;;;40.23;21.47;;;;;;;-145.68;100.00;63218.00;10392237;28;20189;-78
2022/12/10 19:49:19;;;;;;;42.33;21.60;;;;;;;-145.68;100.00;63218.00;10409592;28;20246;-78
2022/12/10 19:54:19;;;;;;;49.27;24.60;;;;;;;-145.68;100.00;63218.00;10392058;28;20689;-78
2022/12/10 19:59:20;;;;;;;44.33;23.13;;;;;;;-145.68;100.00;63218.00;10408704;28;20197;-78
2022/12/10 20:04:20;;;;;;;46.10;23.73;;;;;;;-145.68;100.00;63218.00;10409684;28;20199;-78
2022/12/10 20:09:23;;;;;;;49.43;24.20;;;;;;;-145.68;100.00;63218.00;10408793;28;20220;-76
2022/12/10 20:14:24;;;;;;;55.37;25.93;;;;;;;-145.68;100.00;63218.00;10408465;28;20208;-77
2022/12/10 20:19:24;;;;;;;43.60;22.40;;;;;;;-145.68;100.00;63218.00;10408778;28;20180;-76
2022/12/10 20:24:25;;;;;;;51.30;25.00;;;;;;;-145.68;100.00;63218.00;10408412;28;20235;-76
2022/12/10 20:29:26;;;;;;;50.63;23.70;;;;;;;-145.68;100.00;63218.00;10408237;28;20219;-78
2022/12/10 20:34:26;;;;;;;47.50;23.97;;;;;;;-145.68;100.00;63218.00;10408387;28;20271;-77
2022/12/10 20:39:29;;;;;;;56.67;25.80;;;;;;;-145.68;100.00;63218.00;10407303;28;20200;-77
2022/12/10 20:44:30;;;;;;;55.27;24.27;;;;;;;-145.68;100.00;63218.00;10408113;28;20280;-77
2022/12/10 20:49:30;;;;;;;49.13;22.03;;;;;;;-145.68;100.00;63218.00;10407696;28;20209;-77
2022/12/10 20:54:31;;;;;;;52.70;24.13;;;;;;;-145.68;100.00;63218.00;10407760;28;20199;-77
2022/12/10 20:59:34;;;;;;;55.07;24.60;;;;;;;-145.68;100.00;63218.00;10407363;28;20187;-77
2022/12/10 21:04:34;;;;;;;53.90;24.13;;;;;;;-145.68;100.00;63218.00;10408219;28;20188;-77
2022/12/10 21:09:34;;;;;;;55.83;25.40;;;;;;;-145.68;100.00;63218.00;10389117;28;20220;-77
2022/12/10 21:14:35;;;;;;;50.30;24.43;;;;;;;-145.68;100.00;63218.00;10407416;28;20656;-76
2022/12/10 21:19:35;;;;;;;54.93;24.63;;;;;;;-145.68;100.00;63218.00;10407394;28;20189;-76
2022/12/10 21:24:35;;;;;;;51.83;23.13;;;;;;;-145.68;100.00;63218.00;10406672;28;20231;-77
2022/12/10 21:29:36;;;;;;;42.93;22.83;;;;;;;-145.68;100.00;63218.00;10407395;28;20213;-76
2022/12/10 21:34:36;;;;;;;49.77;23.87;;;;;;;-145.68;100.00;63218.00;10412049;28;20189;-77
2022/12/10 21:39:37;;;;;;;44.67;21.30;;;;;;;-145.68;100.00;63218.00;10413925;28;20676;-77
2022/12/10 21:44:37;;;;;;;44.37;21.23;;;;;;;-145.68;100.00;63218.00;10415030;28;20582;-77
2022/12/10 21:49:37;;;;;;;42.57;21.50;;;;;;;-145.68;100.00;63218.00;10414438;28;20231;-77
2022/12/10 21:54:38;;;;;;;43.00;21.33;;;;;;;-145.68;100.00;63218.00;10414572;28;20242;-77
2022/12/10 21:59:38;;;;;;;40.60;19.10;;;;;;;-145.68;100.00;63218.00;10416088;28;20185;-77
2022/12/10 22:04:39;;;;;;;39.07;18.93;;;;;;;-145.68;100.00;63218.00;10415774;28;20196;-78
2022/12/10 22:09:39;;;;;;;36.23;19.67;;;;;;;-145.68;100.00;63218.00;10415426;28;20227;-77
2022/12/10 22:14:40;;;;;;;41.23;20.90;;;;;;;-145.68;100.00;63218.00;10415888;28;20203;-77
2022/12/10 22:19:41;;;;;;;38.77;18.90;;;;;;;-145.68;100.00;63218.00;10415394;28;20227;-77
2022/12/10 22:24:41;;;;;;;37.53;18.53;;;;;;;-145.68;100.00;63218.00;10415302;28;20395;-77